Time;durP1;ratioP1;P1;durP2;ratioP2;P2;SDS_P1;SDS_P2;PMS_P1;PMS_P2;Temp;Humidity;BMP_temperature;BMP_pressure;BME280_temperature;BME280_humidity;BME280_pressure;Samples;Min_cycle;Max_cycle;Signal;HPM_P1;HPM_P2
2022/04/14 00:01:10;;;;;;;3.97;2.50;;;;;;;7.91;95.90;100828.06;6217422;23;20023;-69
2022/04/14 00:03:35;;;;;;;6.53;3.13;;;;;;;7.85;96.28;100827.94;6247488;23;20005;-71
2022/04/14 00:06:01;;;;;;;8.85;3.60;;;;;;;7.81;95.96;100818.59;6260431;23;20091;-70
2022/04/14 00:08:26;;;;;;;11.30;4.63;;;;;;;7.92;95.80;100830.53;6260393;23;20060;-71
2022/04/14 00:10:52;;;;;;;9.18;4.38;;;;;;;7.92;96.44;100825.09;6259762;23;19996;-71
2022/04/14 00:13:18;;;;;;;6.85;4.03;;;;;;;7.89;96.11;100827.47;6266723;22;20088;-72
2022/04/14 00:15:43;;;;;;;6.10;3.10;;;;;;;7.83;96.71;100816.47;6215321;23;19996;-71
2022/04/14 00:18:08;;;;;;;6.43;2.70;;;;;;;7.75;95.60;100819.53;6240608;23;20077;-71
2022/04/14 00:20:34;;;;;;;4.20;3.28;;;;;;;7.67;97.03;100811.75;6250048;23;20008;-71
2022/04/14 00:22:59;;;;;;;4.93;2.45;;;;;;;7.64;96.26;100825.81;6226252;23;20004;-71
2022/04/14 00:25:25;;;;;;;5.28;2.45;;;;;;;7.58;96.84;100813.13;6252182;23;20323;-71
2022/04/14 00:27:51;;;;;;;5.05;2.80;;;;;;;7.55;97.21;100824.50;6223471;23;20008;-70
2022/04/14 00:30:16;;;;;;;5.82;3.83;;;;;;;7.56;97.38;100823.44;6249981;23;20004;-70
2022/04/14 00:32:41;;;;;;;8.98;4.28;;;;;;;7.50;97.24;100817.06;6219252;23;20016;-69
2022/04/14 00:35:07;;;;;;;7.88;4.20;;;;;;;7.44;96.76;100826.16;6247271;23;20035;-70
2022/04/14 00:37:32;;;;;;;5.47;3.80;;;;;;;7.39;97.27;100837.75;6246487;23;20015;-69
2022/04/14 00:39:58;;;;;;;5.60;4.10;;;;;;;7.34;96.86;100829.47;6248874;23;20327;-71
2022/04/14 00:42:24;;;;;;;14.43;5.32;;;;;;;7.33;96.93;100838.69;6247858;23;20327;-72
2022/04/14 00:44:49;;;;;;;7.70;4.47;;;;;;;7.26;96.85;100832.53;6221309;23;20013;-71
2022/04/14 00:47:16;;;;;;;8.70;4.45;;;;;;;7.22;96.00;100834.06;6220270;23;20345;-70
2022/04/14 00:49:42;;;;;;;4.82;3.20;;;;;;;7.18;96.37;100836.41;6247715;23;20023;-70
2022/04/14 00:52:08;;;;;;;3.42;2.22;;;;;;;7.09;96.78;100833.19;6221004;23;20616;-70
2022/04/14 00:54:34;;;;;;;3.22;2.50;;;;;;;7.05;97.12;100836.63;6218482;23;20028;-70
2022/04/14 00:57:02;;;;;;;4.55;2.60;;;;;;;6.99;97.31;100838.38;6220740;23;20035;-69
2022/04/14 00:59:28;;;;;;;7.75;3.85;;;;;;;6.97;96.96;100837.78;6246915;23;20000;-71
2022/04/14 01:01:54;;;;;;;4.78;3.60;;;;;;;6.94;96.85;100843.69;6245446;23;20007;-72
2022/04/14 01:04:20;;;;;;;5.55;3.25;;;;;;;6.89;97.35;100841.66;6247383;23;20562;-70
2022/04/14 01:06:46;;;;;;;2.90;2.20;;;;;;;6.81;96.65;100836.56;6222598;23;20103;-73
2022/04/14 01:09:18;;;;;;;4.30;3.08;;;;;;;6.73;96.95;100851.31;6247821;23;20076;-71
2022/04/14 01:11:44;;;;;;;5.18;3.10;;;;;;;6.67;96.58;100852.19;6223088;23;20521;-71
2022/04/14 01:14:30;;;;;;;3.72;2.80;;;;;;;6.63;96.54;100856.47;6247901;23;20020;-71
2022/04/14 01:16:57;;;;;;;5.35;2.30;;;;;;;6.56;96.78;100851.09;6222090;23;20107;-72
2022/04/14 01:19:23;;;;;;;2.67;2.45;;;;;;;6.52;97.09;100849.88;6222767;23;20012;-72
2022/04/14 01:22:11;;;;;;;3.17;2.70;;;;;;;6.46;96.80;100857.06;6223514;23;20520;-72
2022/04/14 01:24:38;;;;;;;2.50;2.28;;;;;;;6.40;97.22;100849.84;6251796;23;19999;-72
2022/04/14 01:27:04;;;;;;;4.65;2.42;;;;;;;6.35;97.09;100848.84;6226085;23;20019;-70
2022/04/14 01:29:30;;;;;;;1.42;1.33;;;;;;;6.32;97.32;100850.13;6250690;23;20031;-71
2022/04/14 01:31:57;;;;;;;2.33;1.70;;;;;;;6.33;97.55;100850.97;6251079;23;20011;-70
2022/04/14 01:34:22;;;;;;;2.38;1.90;;;;;;;6.31;97.32;100853.06;6220854;23;20008;-69
2022/04/14 01:36:48;;;;;;;1.92;1.40;;;;;;;6.35;97.44;100855.13;6220039;23;20048;-71
2022/04/14 01:39:14;;;;;;;1.42;1.30;;;;;;;6.43;97.73;100849.38;6246312;23;20008;-70
2022/04/14 01:41:41;;;;;;;1.83;1.30;;;;;;;6.55;97.74;100856.75;6220974;23;20043;-69
2022/04/14 01:44:07;;;;;;;2.03;1.30;;;;;;;6.61;97.69;100858.56;6248324;23;20016;-69
2022/04/14 01:46:32;;;;;;;1.40;1.30;;;;;;;6.61;97.07;100853.13;6247339;23;20060;-70
2022/04/14 01:48:59;;;;;;;1.65;1.10;;;;;;;6.69;97.45;100862.84;6246029;22;20062;-69
2022/04/14 01:51:26;;;;;;;1.17;1.08;;;;;;;6.74;96.72;100861.09;6246723;23;20095;-70
2022/04/14 01:53:52;;;;;;;1.20;1.10;;;;;;;6.84;97.34;100862.44;6220780;23;20153;-70
2022/04/14 01:56:18;;;;;;;2.30;1.30;;;;;;;6.91;96.46;100865.91;6246246;23;20007;-69
2022/04/14 01:58:44;;;;;;;1.10;1.00;;;;;;;6.93;96.69;100871.94;6220145;23;20087;-68
2022/04/14 02:01:10;;;;;;;1.20;1.10;;;;;;;7.01;96.29;100873.50;6243643;23;20031;-69
2022/04/14 02:03:36;;;;;;;1.20;1.00;;;;;;;7.01;96.17;100870.78;6219115;23;20004;-68
2022/04/14 02:06:01;;;;;;;1.30;1.20;;;;;;;6.99;96.28;100866.41;6243102;23;20028;-69
2022/04/14 02:08:27;;;;;;;0.98;0.88;;;;;;;7.08;96.16;100879.66;6244590;23;20343;-70
2022/04/14 02:10:52;;;;;;;1.33;1.20;;;;;;;7.16;96.44;100882.88;6247267;23;20303;-66
2022/04/14 02:13:18;;;;;;;1.20;1.10;;;;;;;7.23;95.55;100881.94;6247189;23;20544;-71
2022/04/14 02:15:43;;;;;;;1.27;1.17;;;;;;;7.23;95.88;100876.50;6195132;23;20007;-71
2022/04/14 02:18:09;;;;;;;2.00;1.25;;;;;;;7.25;95.10;100882.56;6221719;23;20039;-71
2022/04/14 02:20:34;;;;;;;1.17;1.05;;;;;;;7.26;95.29;100885.03;6247178;23;20034;-69
2022/04/14 02:23:00;;;;;;;1.77;1.17;;;;;;;7.27;95.20;100877.69;6194738;23;20504;-70
2022/04/14 02:25:25;;;;;;;2.67;2.03;;;;;;;7.27;95.59;100888.59;6246565;23;20027;-71
2022/04/14 02:27:51;;;;;;;1.92;1.73;;;;;;;7.21;94.70;100882.19;6248437;23;20014;-71
2022/04/14 02:30:16;;;;;;;2.28;1.88;;;;;;;7.19;94.55;100883.50;6251119;23;20800;-71
2022/04/14 02:32:42;;;;;;;2.10;1.60;;;;;;;7.18;94.70;100887.28;6223374;23;20008;-70
2022/04/14 02:35:07;;;;;;;1.83;1.50;;;;;;;7.19;94.59;100887.03;6221950;23;20056;-70
2022/04/14 02:37:33;;;;;;;1.65;1.40;;;;;;;7.23;95.65;100888.22;6219708;23;20008;-69
2022/04/14 02:39:58;;;;;;;2.10;1.80;;;;;;;7.24;94.26;100889.06;6219584;23;20022;-70
2022/04/14 02:42:24;;;;;;;2.97;2.38;;;;;;;7.16;95.19;100891.03;6218520;23;20087;-69
2022/04/14 02:44:49;;;;;;;3.35;2.20;;;;;;;7.06;94.34;100896.22;6220494;23;20016;-70
2022/04/14 02:47:14;;;;;;;2.50;2.30;;;;;;;7.02;94.71;100891.47;6220379;23;20004;-71
2022/04/14 02:49:40;;;;;;;1.83;1.67;;;;;;;7.00;94.30;100894.44;6221612;23;20034;-69
2022/04/14 02:52:06;;;;;;;2.35;1.88;;;;;;;6.96;94.89;100882.34;6247963;23;20030;-71
2022/04/14 02:54:37;;;;;;;2.95;2.30;;;;;;;7.02;94.46;100886.03;6218779;23;20004;-69
2022/04/14 02:57:05;;;;;;;3.13;2.45;;;;;;;7.02;95.33;100875.97;6247353;23;20034;-69
2022/04/14 02:59:30;;;;;;;2.03;1.73;;;;;;;7.02;94.23;100881.41;6219801;23;20331;-68
2022/04/14 03:01:56;;;;;;;2.55;2.13;;;;;;;7.04;94.23;100873.88;6246300;23;20011;-68
2022/04/14 03:04:21;;;;;;;1.92;1.65;;;;;;;7.06;94.22;100881.78;6216228;23;20011;-69
2022/04/14 03:06:47;;;;;;;2.83;2.28;;;;;;;7.01;94.61;100882.50;6218653;23;20015;-70
2022/04/14 03:09:12;;;;;;;1.60;1.48;;;;;;;7.04;94.71;100879.31;6222365;23;20034;-70
2022/04/14 03:11:37;;;;;;;1.67;1.10;;;;;;;7.08;94.71;100877.78;6221474;23;20015;-68
2022/04/14 03:14:03;;;;;;;1.08;0.98;;;;;;;7.09;95.08;100879.44;6248587;23;20008;-71
2022/04/14 03:16:28;;;;;;;1.00;0.90;;;;;;;7.08;95.50;100871.50;6216847;23;20008;-70
2022/04/14 03:18:54;;;;;;;1.33;1.00;;;;;;;7.10;95.36;100872.94;6248015;23;20004;-69
2022/04/14 03:21:19;;;;;;;1.15;0.93;;;;;;;7.11;94.79;100871.88;6242366;23;20476;-70
2022/04/14 03:23:45;;;;;;;2.28;2.00;;;;;;;7.12;94.74;100868.09;6216734;23;20334;-69
2022/04/14 03:26:10;;;;;;;2.67;2.00;;;;;;;7.14;95.17;100865.97;6247930;23;20024;-70
2022/04/14 03:28:38;;;;;;;2.38;1.98;;;;;;;7.09;94.88;100868.56;6221236;23;20016;-69
2022/04/14 03:31:04;;;;;;;2.75;1.80;;;;;;;7.07;95.05;100867.97;6219364;23;20031;-70
2022/04/14 03:33:30;;;;;;;1.98;1.77;;;;;;;7.01;95.04;100866.19;6245939;23;20443;-69
2022/04/14 03:35:56;;;;;;;1.65;1.30;;;;;;;7.08;95.91;100868.78;6221413;23;20453;-69
2022/04/14 03:38:21;;;;;;;2.28;1.58;;;;;;;7.11;95.00;100869.16;6218256;23;20091;-69
2022/04/14 03:40:47;;;;;;;2.22;2.00;;;;;;;7.10;94.85;100866.69;6246923;23;20087;-69
2022/04/14 03:43:12;;;;;;;1.77;1.67;;;;;;;7.09;95.11;100870.44;6192815;23;20008;-68
2022/04/14 03:45:38;;;;;;;3.22;2.25;;;;;;;7.09;95.18;100871.28;6220488;23;20004;-71
2022/04/14 03:48:04;;;;;;;2.85;2.05;;;;;;;7.04;94.90;100873.88;6247477;23;20015;-70
2022/04/14 03:50:29;;;;;;;2.25;1.70;;;;;;;7.05;95.25;100875.50;6218722;23;20085;-70
2022/04/14 03:52:54;;;;;;;1.52;1.42;;;;;;;7.04;94.53;100868.44;6246019;23;20015;-68
2022/04/14 03:55:20;;;;;;;2.38;1.88;;;;;;;6.99;95.04;100865.56;6247048;23;20000;-70
2022/04/14 03:57:45;;;;;;;2.92;2.63;;;;;;;6.95;94.87;100875.25;6216372;23;20007;-72
2022/04/14 04:00:12;;;;;;;2.97;2.30;;;;;;;6.86;94.57;100882.06;6221641;23;20008;-69
2022/04/14 04:02:38;;;;;;;2.75;2.00;;;;;;;6.89;94.77;100892.47;6246894;23;20008;-69
2022/04/14 04:05:04;;;;;;;2.38;2.00;;;;;;;6.84;94.88;100889.63;6244467;23;20400;-70
2022/04/14 04:07:30;;;;;;;2.45;2.25;;;;;;;6.85;94.18;100889.41;6219714;23;20016;-69
2022/04/14 04:09:55;;;;;;;3.17;2.53;;;;;;;6.82;94.32;100898.84;6192014;23;20389;-69
2022/04/14 04:12:21;;;;;;;2.95;2.55;;;;;;;6.74;95.05;100885.56;6220425;23;20020;-69
2022/04/14 04:14:48;;;;;;;3.28;2.78;;;;;;;6.72;95.17;100892.31;6218952;23;20004;-70
2022/04/14 04:17:23;;;;;;;2.58;2.30;;;;;;;6.73;95.02;100894.78;6242125;23;20024;-71
2022/04/14 04:19:49;;;;;;;4.38;2.95;;;;;;;6.68;94.92;100896.53;6246435;23;20079;-70
2022/04/14 04:22:14;;;;;;;2.92;2.53;;;;;;;6.66;94.50;100894.03;6193237;23;20436;-69
2022/04/14 04:24:40;;;;;;;2.72;2.53;;;;;;;6.64;95.58;100886.13;6219461;23;20012;-70
2022/04/14 04:27:06;;;;;;;2.70;2.00;;;;;;;6.70;95.67;100899.84;6247213;23;20008;-70
2022/04/14 04:29:31;;;;;;;2.85;2.53;;;;;;;6.69;95.67;100901.75;6217945;23;20122;-70
2022/04/14 04:31:57;;;;;;;3.58;2.58;;;;;;;6.70;95.89;100903.41;6219639;23;20012;-70
2022/04/14 04:34:22;;;;;;;2.85;2.53;;;;;;;6.73;95.90;100900.22;6241941;23;20427;-68
2022/04/14 04:36:48;;;;;;;4.40;2.80;;;;;;;6.75;95.25;100908.16;6246807;23;20003;-71
2022/04/14 04:39:14;;;;;;;3.00;2.38;;;;;;;6.73;95.14;100911.09;6244004;23;20004;-69
2022/04/14 04:41:39;;;;;;;7.20;2.28;;;;;;;6.70;95.81;100910.72;6245049;23;20012;-70
2022/04/14 04:44:05;;;;;;;2.22;2.03;;;;;;;6.76;94.97;100918.78;6193362;23;20015;-71
2022/04/14 04:46:31;;;;;;;1.98;1.63;;;;;;;6.79;94.84;100926.50;6220116;23;20436;-70
2022/04/14 04:48:57;;;;;;;2.80;1.55;;;;;;;6.80;95.35;100911.84;6247434;22;20311;-69
2022/04/14 04:51:24;;;;;;;1.60;1.17;;;;;;;6.97;95.53;100916.63;6215701;23;20011;-69
2022/04/14 04:53:50;;;;;;;2.42;2.00;;;;;;;7.07;95.39;100907.94;6244042;23;20027;-68
2022/04/14 04:56:17;;;;;;;2.10;1.85;;;;;;;7.12;95.08;100908.88;6245253;23;20386;-69
2022/04/14 04:58:43;;;;;;;2.42;2.10;;;;;;;7.10;95.22;100893.88;6246175;23;20466;-70
2022/04/14 05:01:09;;;;;;;2.60;1.77;;;;;;;7.15;94.28;100905.72;6242906;23;20014;-69
2022/04/14 05:03:34;;;;;;;2.70;1.90;;;;;;;7.22;94.55;100907.50;6244022;23;20008;-68
2022/04/14 05:06:00;;;;;;;3.30;2.40;;;;;;;7.24;94.32;100906.22;6195510;23;20484;-68
2022/04/14 05:08:25;;;;;;;4.32;3.05;;;;;;;7.24;94.46;100922.53;6217638;23;20455;-68
2022/04/14 05:10:50;;;;;;;3.17;2.78;;;;;;;7.19;94.38;100921.56;6247097;23;20031;-69
2022/04/14 05:13:16;;;;;;;4.88;2.75;;;;;;;7.19;93.74;100924.28;6192763;23;20027;-69
2022/04/14 05:15:42;;;;;;;3.03;2.55;;;;;;;7.19;94.34;100935.19;6247131;23;20008;-70
2022/04/14 05:18:07;;;;;;;4.70;3.35;;;;;;;7.19;94.24;100940.63;6221221;23;20026;-70
2022/04/14 05:20:34;;;;;;;3.50;2.58;;;;;;;7.19;93.59;100941.44;6249332;23;20030;-69
2022/04/14 05:23:01;;;;;;;2.65;1.90;;;;;;;7.26;94.37;100952.25;6224568;23;20015;-66
2022/04/14 05:25:26;;;;;;;4.60;3.42;;;;;;;7.28;93.42;100950.91;6247008;23;20008;-68
2022/04/14 05:27:52;;;;;;;2.58;2.00;;;;;;;7.30;93.19;100950.69;6246030;23;20063;-68
2022/04/14 05:30:17;;;;;;;5.07;2.33;;;;;;;7.31;93.45;100955.06;6216680;23;20012;-69
2022/04/14 05:32:43;;;;;;;2.53;2.10;;;;;;;7.34;93.77;100960.91;6217764;23;20057;-70
2022/04/14 05:35:09;;;;;;;1.92;1.70;;;;;;;7.44;93.78;100959.50;6246110;23;20042;-68
2022/04/14 05:37:35;;;;;;;2.78;2.40;;;;;;;7.51;93.25;100952.88;6244538;23;20008;-70
2022/04/14 05:40:02;;;;;;;2.85;2.30;;;;;;;7.58;92.92;100965.56;6246398;23;20012;-68
2022/04/14 05:42:28;;;;;;;2.25;1.88;;;;;;;7.61;93.15;100954.22;6245460;23;20506;-69
2022/04/14 05:44:53;;;;;;;1.83;1.50;;;;;;;7.61;92.57;100957.78;6218354;23;20004;-69
2022/04/14 05:47:19;;;;;;;1.95;1.55;;;;;;;7.69;93.29;100956.59;6220196;23;20004;-69
2022/04/14 05:49:44;;;;;;;1.80;1.65;;;;;;;7.80;93.04;100958.53;6244488;22;20023;-69
2022/04/14 05:52:09;;;;;;;1.70;1.60;;;;;;;7.92;92.56;100949.53;6218854;23;20106;-68
2022/04/14 05:54:35;;;;;;;2.10;1.33;;;;;;;8.00;92.24;100941.00;6245913;23;20019;-69
2022/04/14 05:57:00;;;;;;;2.70;1.92;;;;;;;8.11;92.56;100948.34;6246394;23;20486;-68
2022/04/14 05:59:26;;;;;;;2.55;2.05;;;;;;;8.20;91.92;100954.28;6245489;23;20031;-68
2022/04/14 06:01:51;;;;;;;2.63;2.22;;;;;;;8.25;91.79;100937.22;6219506;23;20008;-67
2022/04/14 06:04:17;;;;;;;2.67;2.00;;;;;;;8.30;91.70;100926.44;6190523;23;20038;-69
2022/04/14 06:06:42;;;;;;;3.70;2.47;;;;;;;8.38;91.22;100937.81;6243853;23;20482;-67
2022/04/14 06:09:07;;;;;;;2.80;2.10;;;;;;;8.43;90.40;100925.38;6241118;23;20054;-68
2022/04/14 06:11:33;;;;;;;2.53;2.00;;;;;;;8.50;90.60;100929.66;6216781;23;20008;-70
2022/04/14 06:13:59;;;;;;;2.00;1.67;;;;;;;8.53;90.18;100920.16;6242542;23;20085;-67
2022/04/14 06:16:24;;;;;;;2.03;1.48;;;;;;;8.67;89.26;100928.88;6245872;23;20008;-68
2022/04/14 06:18:50;;;;;;;2.83;2.25;;;;;;;8.74;89.50;100932.31;6245142;23;20057;-68
2022/04/14 06:21:15;;;;;;;2.15;1.75;;;;;;;8.69;89.25;100943.13;6219049;23;20091;-74
2022/04/14 06:23:41;;;;;;;2.75;1.90;;;;;;;8.65;89.44;100947.41;6251227;23;20023;-74
2022/04/14 06:26:06;;;;;;;2.00;1.80;;;;;;;8.76;88.94;100938.38;6221278;23;20012;-73
2022/04/14 06:28:34;;;;;;;2.25;1.60;;;;;;;8.85;88.84;100950.53;6221305;23;20031;-71
2022/04/14 06:30:59;;;;;;;1.88;1.67;;;;;;;8.88;88.61;100951.97;6216774;23;20007;-68
2022/04/14 06:33:25;;;;;;;3.05;2.60;;;;;;;8.90;87.82;100956.09;6243700;23;20019;-68
2022/04/14 06:35:51;;;;;;;3.00;2.15;;;;;;;8.98;87.84;100956.78;6213977;23;20012;-70
2022/04/14 06:38:16;;;;;;;3.00;2.60;;;;;;;9.01;87.21;100961.75;6217014;23;20004;-69
2022/04/14 06:40:42;;;;;;;3.88;2.47;;;;;;;9.05;86.90;100962.94;6243469;23;20008;-68
2022/04/14 06:43:07;;;;;;;1.92;1.73;;;;;;;9.12;86.67;100969.06;6212634;23;20008;-71
2022/04/14 06:45:33;;;;;;;3.50;2.90;;;;;;;9.09;86.07;100964.91;6214185;23;20087;-68
2022/04/14 06:47:59;;;;;;;4.22;2.58;;;;;;;9.15;85.97;100962.31;6216814;23;20482;-67
2022/04/14 06:50:25;;;;;;;4.38;2.75;;;;;;;9.17;85.92;100961.00;6239882;23;20031;-69
2022/04/14 06:52:53;;;;;;;2.72;2.30;;;;;;;9.23;86.02;100960.00;6241974;23;20450;-67
2022/04/14 06:55:25;;;;;;;3.58;2.58;;;;;;;9.22;86.01;100963.81;6216087;23;20004;-69
2022/04/14 07:00:43;;;;;;;1.67;1.38;;;;;;;9.42;85.42;100951.63;6181122;23;20535;-71
2022/04/14 07:03:09;;;;;;;1.50;1.38;;;;;;;9.60;85.30;100965.03;6234124;23;20004;-70
2022/04/14 07:05:37;;;;;;;2.00;1.75;;;;;;;9.73;84.93;100957.63;6212892;23;20061;-69
2022/04/14 07:08:03;;;;;;;4.35;2.40;;;;;;;9.82;84.46;100961.59;6192308;23;20011;-69
2022/04/14 07:10:28;;;;;;;3.30;2.20;;;;;;;9.98;84.04;100975.50;6214925;23;20004;-69
2022/04/14 07:12:55;;;;;;;2.60;2.10;;;;;;;10.11;83.93;100969.69;6243384;23;20012;-69
2022/04/14 07:15:23;;;;;;;3.22;1.70;;;;;;;10.20;83.71;100973.66;6210756;23;20083;-69
2022/04/14 07:17:51;;;;;;;3.78;2.22;;;;;;;10.26;83.62;100969.91;6242626;23;20000;-68
2022/04/14 07:20:17;;;;;;;2.15;1.95;;;;;;;10.46;82.85;100982.28;6192079;23;20557;-69
2022/04/14 07:22:42;;;;;;;1.50;1.38;;;;;;;10.60;82.42;100983.56;6242389;23;20008;-69
2022/04/14 07:25:11;;;;;;;2.35;1.63;;;;;;;10.65;82.01;100980.91;6217726;23;20011;-69
2022/04/14 07:27:38;;;;;;;2.92;1.77;;;;;;;10.85;81.75;100990.47;6216126;23;20000;-69
2022/04/14 07:30:04;;;;;;;4.65;1.42;;;;;;;10.92;81.38;100985.63;6213831;23;20095;-70
2022/04/14 07:32:48;;;;;;;2.42;1.40;;;;;;;11.10;81.16;100989.13;6218152;23;20019;-72
2022/04/14 07:35:18;;;;;;;2.88;1.77;;;;;;;11.22;80.58;100992.53;6246456;23;20359;-71
2022/04/14 07:37:45;;;;;;;1.95;1.73;;;;;;;11.37;80.14;100980.09;6244440;23;20004;-69
2022/04/14 07:40:10;;;;;;;2.88;1.90;;;;;;;11.57;80.16;100991.28;6213934;23;20016;-69
2022/04/14 07:42:38;;;;;;;2.40;2.00;;;;;;;11.73;79.88;100992.25;6217645;23;20073;-69
2022/04/14 07:45:06;;;;;;;1.60;1.40;;;;;;;11.86;79.27;100988.25;6215144;23;20008;-69
2022/04/14 07:47:31;;;;;;;2.28;1.88;;;;;;;12.00;78.64;100996.88;6243255;23;20000;-69
2022/04/14 07:49:59;;;;;;;1.90;1.63;;;;;;;12.16;78.45;100997.84;6217644;23;20030;-71
2022/04/14 07:52:24;;;;;;;3.15;1.70;;;;;;;12.29;77.31;100991.88;6217564;23;20058;-68
2022/04/14 07:54:49;;;;;;;3.03;1.67;;;;;;;12.49;77.36;100995.88;6246983;23;20547;-69
2022/04/14 07:57:15;;;;;;;3.17;1.42;;;;;;;12.58;76.81;100991.53;6221062;23;20111;-69
2022/04/14 07:59:40;;;;;;;1.70;1.60;;;;;;;12.80;76.14;101007.03;6246616;23;20004;-69
2022/04/14 08:02:09;;;;;;;2.08;1.80;;;;;;;12.95;75.46;100990.59;6191949;23;20538;-70
2022/04/14 08:04:34;;;;;;;3.08;2.25;;;;;;;13.18;74.41;101004.97;6246698;23;20366;-68
2022/04/14 08:07:00;;;;;;;2.88;2.35;;;;;;;13.34;74.13;101000.38;6192987;23;20012;-70
2022/04/14 08:09:25;;;;;;;3.22;2.10;;;;;;;13.55;73.71;101007.59;6217998;23;20019;-69
2022/04/14 08:11:51;;;;;;;2.58;1.75;;;;;;;13.77;72.63;100993.59;6245483;23;20058;-69
2022/04/14 08:14:16;;;;;;;1.92;1.65;;;;;;;14.06;72.53;101014.22;6245312;23;20018;-68
2022/04/14 08:16:42;;;;;;;2.70;2.33;;;;;;;14.17;71.80;101017.81;6214740;23;20589;-68
2022/04/14 08:19:10;;;;;;;3.55;2.88;;;;;;;14.03;71.04;101001.88;6217228;23;20015;-69
2022/04/14 08:21:36;;;;;;;3.17;2.20;;;;;;;14.13;71.13;101006.53;6192340;23;20011;-67
2022/04/14 08:24:02;;;;;;;3.88;2.70;;;;;;;14.34;70.83;101015.59;6221941;23;20008;-69
2022/04/14 08:26:27;;;;;;;4.20;3.10;;;;;;;14.32;69.90;101015.88;6250835;23;20067;-67
2022/04/14 08:28:55;;;;;;;3.97;2.55;;;;;;;14.34;70.33;101018.34;6253869;23;20008;-66
2022/04/14 08:31:24;;;;;;;2.65;2.10;;;;;;;14.28;70.09;101016.69;6207915;23;20093;-67
2022/04/14 08:33:50;;;;;;;3.53;2.10;;;;;;;14.59;70.06;101020.22;6263219;23;20004;-69
2022/04/14 08:36:20;;;;;;;4.00;2.20;;;;;;;14.95;69.01;101016.56;6235772;23;20006;-69
2022/04/14 08:38:47;;;;;;;2.40;2.20;;;;;;;15.51;67.71;101030.09;6224205;23;20034;-68
2022/04/14 08:41:14;;;;;;;4.25;2.60;;;;;;;15.72;66.43;101029.97;6249881;23;20004;-70
2022/04/14 08:43:49;;;;;;;4.13;3.03;;;;;;;15.90;65.87;101030.41;6248297;23;20008;-71
2022/04/14 08:46:16;;;;;;;4.22;3.03;;;;;;;16.38;65.07;101027.81;6248657;23;20058;-69
2022/04/14 08:48:47;;;;;;;2.63;2.17;;;;;;;16.85;63.83;101017.94;6244530;23;20011;-69
2022/04/14 08:51:14;;;;;;;2.22;1.85;;;;;;;17.48;62.39;101035.41;6249783;23;20019;-69
2022/04/14 08:53:41;;;;;;;1.77;1.67;;;;;;;17.92;61.03;101017.63;6196375;23;20016;-68
2022/04/14 08:56:07;;;;;;;2.85;1.75;;;;;;;18.32;60.15;101022.78;6193636;23;20034;-71
2022/04/14 08:58:35;;;;;;;2.88;1.60;;;;;;;18.70;59.12;101024.59;6246805;23;20004;-72
2022/04/14 09:01:01;;;;;;;1.85;1.55;;;;;;;18.98;58.42;101031.81;6221428;23;20005;-69
2022/04/14 09:03:28;;;;;;;1.73;1.30;;;;;;;19.22;58.11;101025.22;6247594;23;20007;-70
2022/04/14 09:05:55;;;;;;;2.53;1.77;;;;;;;19.56;56.43;101021.16;6220048;23;20086;-69
2022/04/14 09:08:24;;;;;;;1.55;1.30;;;;;;;20.21;55.75;101044.06;6219012;23;20012;-68
2022/04/14 09:10:50;;;;;;;3.33;2.22;;;;;;;20.56;53.99;101033.97;6217947;23;20043;-69
2022/04/14 09:13:17;;;;;;;3.35;1.88;;;;;;;21.12;53.31;101049.44;6245635;23;20008;-70
2022/04/14 09:15:42;;;;;;;2.13;1.67;;;;;;;21.55;51.70;101037.59;6244124;23;20079;-71
2022/04/14 09:18:08;;;;;;;2.38;1.95;;;;;;;21.94;50.20;101031.06;6199315;23;20032;-69
2022/04/14 09:20:41;;;;;;;2.67;1.77;;;;;;;22.52;49.76;101046.75;6246334;23;20000;-66
2022/04/14 09:23:23;;;;;;;2.25;1.77;;;;;;;22.67;47.99;101048.97;6243536;23;20423;-71
2022/04/14 09:25:53;;;;;;;2.15;1.40;;;;;;;22.55;48.46;101048.88;6248330;23;20008;-69
2022/04/14 09:28:20;;;;;;;1.70;1.60;;;;;;;22.91;48.43;101055.94;6219367;23;20445;-68
2022/04/14 09:31:07;;;;;;;7.28;3.63;;;;;;;23.22;45.68;101054.81;6216447;23;20416;-71
2022/04/14 09:33:44;;;;;;;3.42;2.20;;;;;;;23.69;45.57;101057.47;6247394;23;20000;-69
2022/04/14 09:36:13;;;;;;;3.38;2.33;;;;;;;24.38;41.38;101058.03;6247271;23;20000;-70
2022/04/14 09:38:59;;;;;;;2.42;1.95;;;;;;;24.54;41.86;101064.59;6220601;23;20004;-69
2022/04/14 09:41:33;;;;;;;3.45;1.85;;;;;;;24.34;42.60;101062.66;6220299;23;20007;-69
2022/04/14 09:44:00;;;;;;;;;;;;;;;24.61;43.34;101069.66;6247717;23;20004;-70
2022/04/14 09:46:26;;;;;;;2.38;2.10;;;;;;;24.76;41.34;101068.16;6245999;23;19911;-68
2022/04/14 09:49:23;;;;;;;1.70;1.55;;;;;;;24.67;42.08;101067.47;6248129;22;20318;-70
2022/04/14 09:51:51;;;;;;;4.03;1.80;;;;;;;24.69;41.71;101081.91;6168043;23;20029;-70
2022/04/14 09:54:28;;;;;;;3.10;1.60;;;;;;;24.35;41.86;101069.91;6189649;23;20042;-71
2022/04/14 09:56:55;;;;;;;4.35;2.30;;;;;;;24.15;40.42;101072.41;6214298;23;20062;-68
2022/04/14 09:59:23;;;;;;;4.07;1.98;;;;;;;23.82;41.52;101073.13;6218207;23;20015;-69
2022/04/14 10:02:06;;;;;;;2.28;1.67;;;;;;;23.81;41.74;101074.28;6192302;23;20001;-71
2022/04/14 10:04:34;;;;;;;2.30;1.60;;;;;;;23.93;41.60;101079.16;6191140;23;20020;-69
2022/04/14 10:07:03;;;;;;;3.50;1.90;;;;;;;24.39;40.74;101079.25;6165505;23;20254;-70
2022/04/14 10:09:30;;;;;;;3.75;1.75;;;;;;;25.08;40.11;101076.81;6188592;23;20024;-69
2022/04/14 10:11:56;;;;;;;7.53;1.40;;;;;;;25.73;38.30;101078.88;6213900;23;20016;-70
2022/04/14 10:14:24;;;;;;;3.03;1.75;;;;;;;26.73;35.35;101080.13;6214615;23;20004;-70
2022/04/14 10:16:50;;;;;;;1.83;1.00;;;;;;;26.73;35.39;101082.94;6216812;23;19997;-70
2022/04/14 10:19:16;;;;;;;4.07;1.38;;;;;;;26.01;35.28;101083.75;6191433;23;20030;-70
2022/04/14 10:21:43;;;;;;;3.70;1.73;;;;;;;25.74;36.49;101086.09;6218384;23;20004;-70
2022/04/14 10:24:08;;;;;;;2.05;1.50;;;;;;;25.71;35.99;101089.63;6218470;23;20058;-71
2022/04/14 10:26:35;;;;;;;2.67;1.50;;;;;;;25.16;37.23;101086.25;6193515;23;20343;-70
2022/04/14 10:29:03;;;;;;;3.25;1.25;;;;;;;24.82;38.03;101086.34;6215861;23;20000;-69
2022/04/14 10:31:30;;;;;;;2.50;1.38;;;;;;;24.76;38.46;101081.34;6217887;23;20064;-71
2022/04/14 10:33:57;;;;;;;3.03;1.02;;;;;;;24.95;36.03;101083.56;6189602;23;20713;-70
2022/04/14 10:36:23;;;;;;;1.95;0.75;;;;;;;24.81;35.57;101076.34;6216989;23;20601;-71
2022/04/14 10:38:50;;;;;;;2.33;0.80;;;;;;;25.87;34.64;101072.88;6189827;23;20092;-69
2022/04/14 10:41:27;;;;;;;1.15;0.60;;;;;;;27.22;33.27;101078.91;6216434;23;20004;-70
2022/04/14 10:44:00;;;;;;;1.95;1.00;;;;;;;27.22;30.37;101076.94;6216919;23;20000;-69
2022/04/14 10:46:37;;;;;;;2.33;0.88;;;;;;;26.59;32.60;101080.53;6212882;23;20008;-70
2022/04/14 10:49:33;;;;;;;4.00;1.27;;;;;;;25.96;31.57;101087.56;6187956;23;20494;-71
2022/04/14 10:52:25;;;;;;;1.45;0.90;;;;;;;25.27;33.01;101087.41;6244546;23;20427;-67
2022/04/14 10:54:58;;;;;;;0.85;0.73;;;;;;;24.82;35.44;101080.75;6219948;23;20051;-68
2022/04/14 10:57:50;;;;;;;4.93;1.90;;;;;;;25.14;34.36;101091.41;6245588;23;20000;-69
2022/04/14 11:00:18;;;;;;;4.30;1.50;;;;;;;24.73;34.99;101080.03;6211782;23;20378;-68
2022/04/14 11:03:02;;;;;;;1.98;1.13;;;;;;;25.40;34.82;101079.88;6243848;23;20314;-70
2022/04/14 11:05:54;;;;;;;2.92;1.20;;;;;;;27.46;32.17;101077.91;6246173;23;20133;-69
2022/04/14 11:08:25;;;;;;;2.05;0.65;;;;;;;28.36;29.31;101077.84;6243016;23;20012;-69
2022/04/14 11:11:11;;;;;;;0.82;0.65;;;;;;;28.03;28.93;101084.81;6246525;23;20035;-69
2022/04/14 11:13:55;;;;;;;1.65;0.75;;;;;;;27.71;28.15;101078.47;6245897;23;20083;-70
2022/04/14 11:16:40;;;;;;;1.70;0.60;;;;;;;26.71;29.19;101082.47;6219653;23;20015;-71
2022/04/14 11:19:22;;;;;;;4.05;0.73;;;;;;;28.94;26.53;101080.88;6248098;23;20008;-70
2022/04/14 11:22:09;;;;;;;1.42;0.55;;;;;;;27.83;27.31;101081.16;6218092;23;20012;-67
2022/04/14 11:24:40;;;;;;;0.68;0.20;;;;;;;25.78;28.65;101078.63;6188882;23;20078;-68
2022/04/14 11:27:12;;;;;;;0.93;0.30;;;;;;;24.16;30.56;101076.81;6245069;23;20063;-68
2022/04/14 11:29:43;;;;;;;0.77;0.40;;;;;;;23.30;32.03;101067.91;6243975;23;20015;-68
2022/04/14 11:32:09;;;;;;;0.88;0.30;;;;;;;23.34;31.88;101066.91;6215818;23;20435;-69
2022/04/14 11:34:36;;;;;;;0.20;0.20;;;;;;;23.85;32.33;101066.06;6216476;23;20011;-65
2022/04/14 11:37:02;;;;;;;0.75;0.40;;;;;;;25.34;29.72;101068.09;6218113;23;20030;-66